This is the latest recevied weather packets stored in our database for station/object K4AMF. If no packets are shown the sender has not sent any weather packets the latest 10 day(s).
| Time | Temp. | Humidity | Pressure | Rain* | Wind** | Luminosity | Snow |
|---|---|---|---|---|---|---|---|
| 1778177520 | 30.56° C | 55% | 1015.4 hPa | 0 mm | - | 351 W/m² | - |
| 1778177211 | 30° C | 56% | 1015.5 hPa | 0 mm | - | 484 W/m² | - |
| 1778176909 | 30.56° C | 55% | 1015.4 hPa | 0 mm | - | 267 W/m² | - |
| 1778176604 | 30.56° C | 54% | 1015.4 hPa | 0 mm | - | 311 W/m² | - |
| 1778176301 | 30.56° C | 53% | 1015.7 hPa | 0 mm | - | 213 W/m² | - |
| 1778175998 | 30.56° C | 52% | 1015.8 hPa | 0 mm | - | 178 W/m² | - |
| 1778175697 | 30.56° C | 52% | 1015.8 hPa | 0 mm | - | 195 W/m² | - |
| 1778175394 | 30.56° C | 52% | 1015.7 hPa | 0 mm | - | 182 W/m² | - |
| 1778175091 | 31.11° C | 51% | 1015.9 hPa | 0 mm | - | 252 W/m² | - |
| 1778174786 | 31.67° C | 50% | 1016 hPa | 0 mm | - | 374 W/m² | - |
| 1778174484 | 31.11° C | 51% | 1016.2 hPa | 0 mm | - | 834 W/m² | - |
| 1778174179 | 31.67° C | 50% | 1015.9 hPa | 0 mm | - | 400 W/m² | - |
| 1778173876 | 31.11° C | 51% | 1015.8 hPa | 0 mm | - | 456 W/m² | - |
| 1778173574 | 31.67° C | 50% | 1015.8 hPa | 0 mm | - | 440 W/m² | - |
| 1778173270 | 31.11° C | 53% | 1015.8 hPa | 0 mm | - | 914 W/m² | - |
| 1778172965 | 31.11° C | 51% | 1015.9 hPa | 0 mm | - | 520 W/m² | - |
| 1778172662 | 32.22° C | 50% | 1015.9 hPa | 0 mm | - | 441 W/m² | - |
| 1778172358 | 30.56° C | 53% | 1015.8 hPa | 0 mm | - | 745 W/m² | - |
| 1778172055 | 30.56° C | 54% | 1016 hPa | 0 mm | - | 704 W/m² | - |
| 1778171753 | 30.56° C | 56% | 1016.1 hPa | 0 mm | - | 624 W/m² | - |
| 1778171451 | 30.56° C | 56% | 1016.1 hPa | 0 mm | - | 737 W/m² | - |
| 1778171150 | 30.56° C | 57% | 1015.8 hPa | 0 mm | - | 716 W/m² | - |
| 1778170848 | 30.56° C | 60% | 1015.8 hPa | 0 mm | - | 757 W/m² | - |
| 1778170544 | 30.56° C | 61% | 1015.9 hPa | 0 mm | - | 754 W/m² | - |
| 1778170241 | 30° C | 64% | 1016.2 hPa | 0 mm | - | 344 W/m² | - |
* Rain latest hour (hover to see other rain measurements)
** Current wind speed in m/s (hover to see current wind gust speed)